sensor_id;sensor_type;location;lat;lon;timestamp;P1;durP1;ratioP1;P2;durP2;ratioP2
16870;SDS011;8552;48.120;-1.456;2022-08-30T00:02:11;5.15;;;2.42;;
16870;SDS011;8552;48.120;-1.456;2022-08-30T00:04:37;6.00;;;2.42;;
16870;SDS011;8552;48.120;-1.456;2022-08-30T00:07:03;5.60;;;2.70;;
16870;SDS011;8552;48.120;-1.456;2022-08-30T00:09:30;5.45;;;2.28;;
16870;SDS011;8552;48.120;-1.456;2022-08-30T00:11:56;5.65;;;2.30;;
16870;SDS011;8552;48.120;-1.456;2022-08-30T00:14:21;3.38;;;2.00;;
16870;SDS011;8552;48.120;-1.456;2022-08-30T00:16:49;3.78;;;2.15;;
16870;SDS011;8552;48.120;-1.456;2022-08-30T00:19:15;5.32;;;2.10;;
16870;SDS011;8552;48.120;-1.456;2022-08-30T00:21:41;6.85;;;2.40;;
16870;SDS011;8552;48.120;-1.456;2022-08-30T00:24:06;5.50;;;2.60;;
16870;SDS011;8552;48.120;-1.456;2022-08-30T00:26:32;4.07;;;2.13;;
16870;SDS011;8552;48.120;-1.456;2022-08-30T00:28:58;5.95;;;2.00;;
16870;SDS011;8552;48.120;-1.456;2022-08-30T00:31:23;6.07;;;2.50;;
16870;SDS011;8552;48.120;-1.456;2022-08-30T00:33:49;6.28;;;2.33;;
16870;SDS011;8552;48.120;-1.456;2022-08-30T00:36:15;4.15;;;2.50;;
16870;SDS011;8552;48.120;-1.456;2022-08-30T00:38:40;6.10;;;2.58;;
16870;SDS011;8552;48.120;-1.456;2022-08-30T00:41:06;5.43;;;2.67;;
16870;SDS011;8552;48.120;-1.456;2022-08-30T00:43:32;6.68;;;2.38;;
16870;SDS011;8552;48.120;-1.456;2022-08-30T00:45:59;4.28;;;2.30;;
16870;SDS011;8552;48.120;-1.456;2022-08-30T00:48:32;5.57;;;2.63;;
16870;SDS011;8552;48.120;-1.456;2022-08-30T00:51:01;5.53;;;2.88;;
16870;SDS011;8552;48.120;-1.456;2022-08-30T00:53:33;9.13;;;2.63;;
16870;SDS011;8552;48.120;-1.456;2022-08-30T00:56:01;4.50;;;1.90;;
16870;SDS011;8552;48.120;-1.456;2022-08-30T00:58:30;8.98;;;2.30;;
16870;SDS011;8552;48.120;-1.456;2022-08-30T01:00:59;7.22;;;2.25;;
16870;SDS011;8552;48.120;-1.456;2022-08-30T01:03:27;7.57;;;3.20;;
16870;SDS011;8552;48.120;-1.456;2022-08-30T01:05:53;6.25;;;2.63;;
16870;SDS011;8552;48.120;-1.456;2022-08-30T01:08:21;6.28;;;2.50;;
16870;SDS011;8552;48.120;-1.456;2022-08-30T01:10:47;6.30;;;2.28;;
16870;SDS011;8552;48.120;-1.456;2022-08-30T01:13:15;5.85;;;2.55;;
16870;SDS011;8552;48.120;-1.456;2022-08-30T01:15:42;6.88;;;3.08;;
16870;SDS011;8552;48.120;-1.456;2022-08-30T01:18:08;4.03;;;2.40;;
16870;SDS011;8552;48.120;-1.456;2022-08-30T01:20:44;4.72;;;2.10;;
16870;SDS011;8552;48.120;-1.456;2022-08-30T01:23:17;4.72;;;2.15;;
16870;SDS011;8552;48.120;-1.456;2022-08-30T01:25:46;3.65;;;1.98;;
16870;SDS011;8552;48.120;-1.456;2022-08-30T01:28:14;6.38;;;2.97;;
16870;SDS011;8552;48.120;-1.456;2022-08-30T01:30:44;6.57;;;2.28;;
16870;SDS011;8552;48.120;-1.456;2022-08-30T01:33:10;8.23;;;2.75;;
16870;SDS011;8552;48.120;-1.456;2022-08-30T01:35:47;4.88;;;2.20;;
16870;SDS011;8552;48.120;-1.456;2022-08-30T01:38:17;5.70;;;2.60;;
16870;SDS011;8552;48.120;-1.456;2022-08-30T01:40:46;5.43;;;1.90;;
16870;SDS011;8552;48.120;-1.456;2022-08-30T01:43:13;5.70;;;1.98;;
16870;SDS011;8552;48.120;-1.456;2022-08-30T01:45:40;4.10;;;2.47;;
16870;SDS011;8552;48.120;-1.456;2022-08-30T01:48:06;6.95;;;2.55;;
16870;SDS011;8552;48.120;-1.456;2022-08-30T01:50:32;2.88;;;2.00;;
16870;SDS011;8552;48.120;-1.456;2022-08-30T01:52:58;2.72;;;2.08;;
16870;SDS011;8552;48.120;-1.456;2022-08-30T01:55:24;4.72;;;2.38;;
16870;SDS011;8552;48.120;-1.456;2022-08-30T01:57:50;7.25;;;2.60;;
16870;SDS011;8552;48.120;-1.456;2022-08-30T02:00:16;5.05;;;2.67;;
16870;SDS011;8552;48.120;-1.456;2022-08-30T02:02:42;6.75;;;2.33;;
16870;SDS011;8552;48.120;-1.456;2022-08-30T02:05:08;2.75;;;2.05;;
16870;SDS011;8552;48.120;-1.456;2022-08-30T02:07:34;4.47;;;2.33;;
16870;SDS011;8552;48.120;-1.456;2022-08-30T02:10:00;5.57;;;2.45;;
16870;SDS011;8552;48.120;-1.456;2022-08-30T02:12:26;5.20;;;2.13;;
16870;SDS011;8552;48.120;-1.456;2022-08-30T02:14:54;4.80;;;2.30;;
16870;SDS011;8552;48.120;-1.456;2022-08-30T02:17:20;3.58;;;2.05;;
16870;SDS011;8552;48.120;-1.456;2022-08-30T02:19:46;5.40;;;2.53;;
16870;SDS011;8552;48.120;-1.456;2022-08-30T02:22:11;5.88;;;2.40;;
16870;SDS011;8552;48.120;-1.456;2022-08-30T02:24:37;5.50;;;2.30;;
16870;SDS011;8552;48.120;-1.456;2022-08-30T02:27:03;5.97;;;2.58;;
16870;SDS011;8552;48.120;-1.456;2022-08-30T02:29:29;6.93;;;2.50;;
16870;SDS011;8552;48.120;-1.456;2022-08-30T02:31:55;5.55;;;2.50;;
16870;SDS011;8552;48.120;-1.456;2022-08-30T02:34:21;7.28;;;2.58;;
16870;SDS011;8552;48.120;-1.456;2022-08-30T02:36:47;5.72;;;2.15;;
16870;SDS011;8552;48.120;-1.456;2022-08-30T02:39:13;5.20;;;1.95;;
16870;SDS011;8552;48.120;-1.456;2022-08-30T02:41:39;2.80;;;1.98;;
16870;SDS011;8552;48.120;-1.456;2022-08-30T02:44:05;5.82;;;2.80;;
16870;SDS011;8552;48.120;-1.456;2022-08-30T02:46:31;5.22;;;2.47;;
16870;SDS011;8552;48.120;-1.456;2022-08-30T02:48:57;8.63;;;2.13;;
16870;SDS011;8552;48.120;-1.456;2022-08-30T02:51:23;5.38;;;2.53;;
16870;SDS011;8552;48.120;-1.456;2022-08-30T02:53:49;9.68;;;2.75;;
16870;SDS011;8552;48.120;-1.456;2022-08-30T02:56:15;8.25;;;2.45;;
16870;SDS011;8552;48.120;-1.456;2022-08-30T02:58:41;3.10;;;2.33;;
16870;SDS011;8552;48.120;-1.456;2022-08-30T03:01:09;5.93;;;2.60;;
16870;SDS011;8552;48.120;-1.456;2022-08-30T03:03:37;4.90;;;2.13;;
16870;SDS011;8552;48.120;-1.456;2022-08-30T03:06:04;5.03;;;2.05;;
16870;SDS011;8552;48.120;-1.456;2022-08-30T03:08:30;3.33;;;2.53;;
16870;SDS011;8552;48.120;-1.456;2022-08-30T03:10:56;6.57;;;2.17;;
16870;SDS011;8552;48.120;-1.456;2022-08-30T03:13:23;4.80;;;2.05;;
16870;SDS011;8552;48.120;-1.456;2022-08-30T03:15:49;4.78;;;2.20;;
16870;SDS011;8552;48.120;-1.456;2022-08-30T03:18:19;5.30;;;2.45;;
16870;SDS011;8552;48.120;-1.456;2022-08-30T03:20:46;2.97;;;2.10;;
16870;SDS011;8552;48.120;-1.456;2022-08-30T03:23:12;3.95;;;2.65;;
16870;SDS011;8552;48.120;-1.456;2022-08-30T03:25:39;6.25;;;2.50;;
16870;SDS011;8552;48.120;-1.456;2022-08-30T03:28:05;3.97;;;2.42;;
16870;SDS011;8552;48.120;-1.456;2022-08-30T03:30:31;6.50;;;2.85;;
16870;SDS011;8552;48.120;-1.456;2022-08-30T03:32:57;5.07;;;2.25;;
16870;SDS011;8552;48.120;-1.456;2022-08-30T03:35:23;4.45;;;1.92;;
16870;SDS011;8552;48.120;-1.456;2022-08-30T03:37:49;4.13;;;2.40;;
16870;SDS011;8552;48.120;-1.456;2022-08-30T03:40:16;5.07;;;2.30;;
16870;SDS011;8552;48.120;-1.456;2022-08-30T03:42:44;4.53;;;2.55;;
16870;SDS011;8552;48.120;-1.456;2022-08-30T03:45:11;6.20;;;3.03;;
16870;SDS011;8552;48.120;-1.456;2022-08-30T03:47:37;2.78;;;2.30;;
16870;SDS011;8552;48.120;-1.456;2022-08-30T03:50:03;5.75;;;2.10;;
16870;SDS011;8552;48.120;-1.456;2022-08-30T03:52:30;3.88;;;2.40;;
16870;SDS011;8552;48.120;-1.456;2022-08-30T03:54:56;3.17;;;2.08;;
16870;SDS011;8552;48.120;-1.456;2022-08-30T03:57:22;4.50;;;2.42;;
16870;SDS011;8552;48.120;-1.456;2022-08-30T03:59:48;6.03;;;2.58;;
16870;SDS011;8552;48.120;-1.456;2022-08-30T04:02:14;4.25;;;2.40;;
16870;SDS011;8552;48.120;-1.456;2022-08-30T04:04:39;3.67;;;2.20;;
16870;SDS011;8552;48.120;-1.456;2022-08-30T04:07:05;8.23;;;2.95;;
16870;SDS011;8552;48.120;-1.456;2022-08-30T04:09:31;4.95;;;2.00;;
16870;SDS011;8552;48.120;-1.456;2022-08-30T04:11:56;5.20;;;2.92;;
16870;SDS011;8552;48.120;-1.456;2022-08-30T04:14:24;4.40;;;2.58;;
16870;SDS011;8552;48.120;-1.456;2022-08-30T04:16:49;3.47;;;2.40;;
16870;SDS011;8552;48.120;-1.456;2022-08-30T04:19:15;4.85;;;2.63;;
16870;SDS011;8552;48.120;-1.456;2022-08-30T04:21:41;5.22;;;2.13;;
16870;SDS011;8552;48.120;-1.456;2022-08-30T04:24:09;5.43;;;1.92;;
16870;SDS011;8552;48.120;-1.456;2022-08-30T04:26:36;3.40;;;2.28;;
16870;SDS011;8552;48.120;-1.456;2022-08-30T04:29:02;3.95;;;2.40;;
16870;SDS011;8552;48.120;-1.456;2022-08-30T04:31:28;8.65;;;2.90;;
16870;SDS011;8552;48.120;-1.456;2022-08-30T04:33:54;4.30;;;2.30;;
16870;SDS011;8552;48.120;-1.456;2022-08-30T04:36:20;5.57;;;2.45;;
16870;SDS011;8552;48.120;-1.456;2022-08-30T04:38:46;5.43;;;2.65;;
16870;SDS011;8552;48.120;-1.456;2022-08-30T04:41:13;6.53;;;2.70;;
16870;SDS011;8552;48.120;-1.456;2022-08-30T04:43:41;5.32;;;2.78;;
16870;SDS011;8552;48.120;-1.456;2022-08-30T04:46:08;8.25;;;2.88;;
16870;SDS011;8552;48.120;-1.456;2022-08-30T04:48:35;4.18;;;2.63;;
16870;SDS011;8552;48.120;-1.456;2022-08-30T04:51:06;5.40;;;2.60;;
16870;SDS011;8552;48.120;-1.456;2022-08-30T04:53:34;5.18;;;2.38;;
16870;SDS011;8552;48.120;-1.456;2022-08-30T04:56:00;3.38;;;2.50;;
16870;SDS011;8552;48.120;-1.456;2022-08-30T04:58:30;3.65;;;2.53;;
16870;SDS011;8552;48.120;-1.456;2022-08-30T05:00:56;4.07;;;2.42;;
16870;SDS011;8552;48.120;-1.456;2022-08-30T05:03:21;5.80;;;2.50;;
16870;SDS011;8552;48.120;-1.456;2022-08-30T05:05:48;5.50;;;2.88;;
16870;SDS011;8552;48.120;-1.456;2022-08-30T05:08:15;4.07;;;2.83;;
16870;SDS011;8552;48.120;-1.456;2022-08-30T05:10:43;6.47;;;2.58;;
16870;SDS011;8552;48.120;-1.456;2022-08-30T05:13:11;7.80;;;2.58;;
16870;SDS011;8552;48.120;-1.456;2022-08-30T05:15:37;5.03;;;2.50;;
16870;SDS011;8552;48.120;-1.456;2022-08-30T05:18:04;3.40;;;2.42;;
16870;SDS011;8552;48.120;-1.456;2022-08-30T05:20:31;2.92;;;2.30;;
16870;SDS011;8552;48.120;-1.456;2022-08-30T05:22:57;6.70;;;3.42;;
16870;SDS011;8552;48.120;-1.456;2022-08-30T05:25:25;6.68;;;2.75;;
16870;SDS011;8552;48.120;-1.456;2022-08-30T05:27:53;3.42;;;2.58;;
16870;SDS011;8552;48.120;-1.456;2022-08-30T05:30:19;7.25;;;2.72;;
16870;SDS011;8552;48.120;-1.456;2022-08-30T05:32:45;9.65;;;2.97;;
16870;SDS011;8552;48.120;-1.456;2022-08-30T05:35:12;3.28;;;2.00;;
16870;SDS011;8552;48.120;-1.456;2022-08-30T05:37:38;6.07;;;2.17;;
16870;SDS011;8552;48.120;-1.456;2022-08-30T05:40:04;3.28;;;2.60;;
16870;SDS011;8552;48.120;-1.456;2022-08-30T05:42:34;4.40;;;2.35;;
16870;SDS011;8552;48.120;-1.456;2022-08-30T05:45:00;4.80;;;2.75;;
16870;SDS011;8552;48.120;-1.456;2022-08-30T05:47:27;4.10;;;2.72;;
16870;SDS011;8552;48.120;-1.456;2022-08-30T05:49:52;9.20;;;3.08;;
16870;SDS011;8552;48.120;-1.456;2022-08-30T05:52:18;6.07;;;2.85;;
16870;SDS011;8552;48.120;-1.456;2022-08-30T05:54:44;7.93;;;2.90;;
16870;SDS011;8552;48.120;-1.456;2022-08-30T05:57:10;4.68;;;2.80;;
16870;SDS011;8552;48.120;-1.456;2022-08-30T05:59:36;3.53;;;2.35;;
16870;SDS011;8552;48.120;-1.456;2022-08-30T06:02:02;9.25;;;2.63;;
16870;SDS011;8552;48.120;-1.456;2022-08-30T06:04:29;6.53;;;2.88;;
16870;SDS011;8552;48.120;-1.456;2022-08-30T06:06:54;6.18;;;2.67;;
16870;SDS011;8552;48.120;-1.456;2022-08-30T06:09:20;5.18;;;3.22;;
16870;SDS011;8552;48.120;-1.456;2022-08-30T06:11:46;5.78;;;2.85;;
16870;SDS011;8552;48.120;-1.456;2022-08-30T06:14:12;5.50;;;2.58;;
16870;SDS011;8552;48.120;-1.456;2022-08-30T06:16:38;3.88;;;2.63;;
16870;SDS011;8552;48.120;-1.456;2022-08-30T06:19:05;5.82;;;2.30;;
16870;SDS011;8552;48.120;-1.456;2022-08-30T06:21:33;4.75;;;2.53;;
16870;SDS011;8552;48.120;-1.456;2022-08-30T06:24:00;6.72;;;3.50;;
16870;SDS011;8552;48.120;-1.456;2022-08-30T06:26:28;7.07;;;3.35;;
16870;SDS011;8552;48.120;-1.456;2022-08-30T06:28:54;4.72;;;2.70;;
16870;SDS011;8552;48.120;-1.456;2022-08-30T06:31:21;6.18;;;3.42;;
16870;SDS011;8552;48.120;-1.456;2022-08-30T06:33:48;7.82;;;3.20;;
16870;SDS011;8552;48.120;-1.456;2022-08-30T06:36:16;4.93;;;2.88;;
16870;SDS011;8552;48.120;-1.456;2022-08-30T06:38:43;5.10;;;2.95;;
16870;SDS011;8552;48.120;-1.456;2022-08-30T06:41:11;6.97;;;2.80;;
16870;SDS011;8552;48.120;-1.456;2022-08-30T06:43:39;6.45;;;3.05;;
16870;SDS011;8552;48.120;-1.456;2022-08-30T06:46:06;4.38;;;3.00;;
16870;SDS011;8552;48.120;-1.456;2022-08-30T06:48:33;5.82;;;2.97;;
16870;SDS011;8552;48.120;-1.456;2022-08-30T06:50:59;4.22;;;2.83;;
16870;SDS011;8552;48.120;-1.456;2022-08-30T06:53:26;3.95;;;2.75;;
16870;SDS011;8552;48.120;-1.456;2022-08-30T06:55:56;8.00;;;2.90;;
16870;SDS011;8552;48.120;-1.456;2022-08-30T06:58:25;9.85;;;2.97;;
16870;SDS011;8552;48.120;-1.456;2022-08-30T07:00:52;7.63;;;2.85;;
16870;SDS011;8552;48.120;-1.456;2022-08-30T07:03:18;5.07;;;3.45;;
16870;SDS011;8552;48.120;-1.456;2022-08-30T07:05:44;5.97;;;3.33;;
16870;SDS011;8552;48.120;-1.456;2022-08-30T07:08:12;7.70;;;2.80;;
16870;SDS011;8552;48.120;-1.456;2022-08-30T07:10:38;5.25;;;3.08;;
16870;SDS011;8552;48.120;-1.456;2022-08-30T07:13:05;5.95;;;2.75;;
16870;SDS011;8552;48.120;-1.456;2022-08-30T07:15:31;6.28;;;3.28;;
16870;SDS011;8552;48.120;-1.456;2022-08-30T07:17:56;6.20;;;2.80;;
16870;SDS011;8552;48.120;-1.456;2022-08-30T07:20:40;4.95;;;2.80;;
16870;SDS011;8552;48.120;-1.456;2022-08-30T07:23:07;7.75;;;2.97;;
16870;SDS011;8552;48.120;-1.456;2022-08-30T07:25:35;6.55;;;2.75;;
16870;SDS011;8552;48.120;-1.456;2022-08-30T07:28:01;4.63;;;2.75;;
16870;SDS011;8552;48.120;-1.456;2022-08-30T07:30:28;6.28;;;2.78;;
16870;SDS011;8552;48.120;-1.456;2022-08-30T07:32:55;7.25;;;3.10;;
16870;SDS011;8552;48.120;-1.456;2022-08-30T07:35:21;6.68;;;2.67;;
16870;SDS011;8552;48.120;-1.456;2022-08-30T07:37:47;4.55;;;3.03;;
16870;SDS011;8552;48.120;-1.456;2022-08-30T07:40:13;5.95;;;2.95;;
16870;SDS011;8552;48.120;-1.456;2022-08-30T07:42:38;6.13;;;2.85;;
16870;SDS011;8552;48.120;-1.456;2022-08-30T07:45:05;8.90;;;2.65;;
16870;SDS011;8552;48.120;-1.456;2022-08-30T07:47:32;4.47;;;2.58;;
16870;SDS011;8552;48.120;-1.456;2022-08-30T07:49:58;8.93;;;2.70;;
16870;SDS011;8552;48.120;-1.456;2022-08-30T07:52:25;4.40;;;3.08;;
16870;SDS011;8552;48.120;-1.456;2022-08-30T07:54:53;7.97;;;3.97;;
16870;SDS011;8552;48.120;-1.456;2022-08-30T07:57:19;6.07;;;3.60;;
16870;SDS011;8552;48.120;-1.456;2022-08-30T07:59:45;5.25;;;3.05;;
16870;SDS011;8552;48.120;-1.456;2022-08-30T08:02:11;10.27;;;3.08;;
16870;SDS011;8552;48.120;-1.456;2022-08-30T08:04:37;7.60;;;3.60;;
16870;SDS011;8552;48.120;-1.456;2022-08-30T08:07:02;6.82;;;2.75;;
16870;SDS011;8552;48.120;-1.456;2022-08-30T08:09:28;6.45;;;2.78;;
16870;SDS011;8552;48.120;-1.456;2022-08-30T08:11:54;5.10;;;2.47;;
16870;SDS011;8552;48.120;-1.456;2022-08-30T08:14:20;6.03;;;3.05;;
16870;SDS011;8552;48.120;-1.456;2022-08-30T08:16:47;6.13;;;3.03;;
16870;SDS011;8552;48.120;-1.456;2022-08-30T08:19:13;4.32;;;2.90;;
16870;SDS011;8552;48.120;-1.456;2022-08-30T08:21:39;7.35;;;3.08;;
16870;SDS011;8552;48.120;-1.456;2022-08-30T08:24:05;4.47;;;3.20;;
16870;SDS011;8552;48.120;-1.456;2022-08-30T08:26:33;6.05;;;3.03;;
16870;SDS011;8552;48.120;-1.456;2022-08-30T08:29:00;6.10;;;3.25;;
16870;SDS011;8552;48.120;-1.456;2022-08-30T08:31:26;7.15;;;3.10;;
16870;SDS011;8552;48.120;-1.456;2022-08-30T08:33:53;4.07;;;2.53;;
16870;SDS011;8552;48.120;-1.456;2022-08-30T08:36:19;6.28;;;2.67;;
16870;SDS011;8552;48.120;-1.456;2022-08-30T08:38:45;4.50;;;3.20;;
16870;SDS011;8552;48.120;-1.456;2022-08-30T08:43:45;6.88;;;3.22;;
16870;SDS011;8552;48.120;-1.456;2022-08-30T08:49:08;6.00;;;3.00;;
16870;SDS011;8552;48.120;-1.456;2022-08-30T08:51:35;4.78;;;2.78;;
16870;SDS011;8552;48.120;-1.456;2022-08-30T08:54:34;5.40;;;3.20;;
16870;SDS011;8552;48.120;-1.456;2022-08-30T08:57:06;5.28;;;2.83;;
16870;SDS011;8552;48.120;-1.456;2022-08-30T08:59:33;9.02;;;3.10;;
16870;SDS011;8552;48.120;-1.456;2022-08-30T09:01:59;7.22;;;2.80;;
16870;SDS011;8552;48.120;-1.456;2022-08-30T09:04:31;5.82;;;3.03;;
16870;SDS011;8552;48.120;-1.456;2022-08-30T09:06:59;7.28;;;3.10;;
16870;SDS011;8552;48.120;-1.456;2022-08-30T09:09:44;7.80;;;3.10;;
16870;SDS011;8552;48.120;-1.456;2022-08-30T09:12:10;6.85;;;3.03;;
16870;SDS011;8552;48.120;-1.456;2022-08-30T09:14:40;5.38;;;2.95;;
16870;SDS011;8552;48.120;-1.456;2022-08-30T09:17:11;4.70;;;2.95;;
16870;SDS011;8552;48.120;-1.456;2022-08-30T09:24:51;3.63;;;2.65;;
16870;SDS011;8552;48.120;-1.456;2022-08-30T09:27:41;4.90;;;2.92;;
16870;SDS011;8552;48.120;-1.456;2022-08-30T09:30:20;6.38;;;3.10;;
16870;SDS011;8552;48.120;-1.456;2022-08-30T09:33:03;4.90;;;2.80;;
16870;SDS011;8552;48.120;-1.456;2022-08-30T09:35:46;4.70;;;2.85;;
16870;SDS011;8552;48.120;-1.456;2022-08-30T09:38:17;8.73;;;3.25;;
16870;SDS011;8552;48.120;-1.456;2022-08-30T09:40:57;4.72;;;3.38;;
16870;SDS011;8552;48.120;-1.456;2022-08-30T09:43:30;7.20;;;2.80;;
16870;SDS011;8552;48.120;-1.456;2022-08-30T10:04:36;7.00;;;2.95;;
16870;SDS011;8552;48.120;-1.456;2022-08-30T10:15:33;4.53;;;2.92;;
16870;SDS011;8552;48.120;-1.456;2022-08-30T10:21:00;6.10;;;3.70;;
16870;SDS011;8552;48.120;-1.456;2022-08-30T10:23:37;5.38;;;2.88;;
16870;SDS011;8552;48.120;-1.456;2022-08-30T10:29:02;4.72;;;2.85;;
16870;SDS011;8552;48.120;-1.456;2022-08-30T10:34:33;6.72;;;3.05;;
16870;SDS011;8552;48.120;-1.456;2022-08-30T10:37:12;7.10;;;3.17;;
16870;SDS011;8552;48.120;-1.456;2022-08-30T10:39:44;8.07;;;3.00;;
16870;SDS011;8552;48.120;-1.456;2022-08-30T10:42:24;6.03;;;3.33;;
16870;SDS011;8552;48.120;-1.456;2022-08-30T10:45:02;6.85;;;3.05;;
16870;SDS011;8552;48.120;-1.456;2022-08-30T10:50:29;6.55;;;3.05;;
16870;SDS011;8552;48.120;-1.456;2022-08-30T10:53:06;5.40;;;2.90;;
16870;SDS011;8552;48.120;-1.456;2022-08-30T10:55:44;4.97;;;3.17;;
16870;SDS011;8552;48.120;-1.456;2022-08-30T10:58:15;4.85;;;2.90;;
16870;SDS011;8552;48.120;-1.456;2022-08-30T11:14:28;6.60;;;3.42;;
16870;SDS011;8552;48.120;-1.456;2022-08-30T11:16:55;5.15;;;2.88;;
16870;SDS011;8552;48.120;-1.456;2022-08-30T11:19:25;5.65;;;3.10;;
16870;SDS011;8552;48.120;-1.456;2022-08-30T11:22:13;3.80;;;3.10;;
16870;SDS011;8552;48.120;-1.456;2022-08-30T11:27:50;3.75;;;2.92;;
16870;SDS011;8552;48.120;-1.456;2022-08-30T11:33:01;6.35;;;2.78;;
16870;SDS011;8552;48.120;-1.456;2022-08-30T11:35:39;4.78;;;2.83;;
16870;SDS011;8552;48.120;-1.456;2022-08-30T11:38:17;7.05;;;3.13;;
16870;SDS011;8552;48.120;-1.456;2022-08-30T11:48:45;3.42;;;2.65;;
16870;SDS011;8552;48.120;-1.456;2022-08-30T11:56:52;4.20;;;2.88;;
16870;SDS011;8552;48.120;-1.456;2022-08-30T11:59:40;4.32;;;2.78;;
16870;SDS011;8552;48.120;-1.456;2022-08-30T12:02:26;3.67;;;2.80;;
16870;SDS011;8552;48.120;-1.456;2022-08-30T12:05:10;3.75;;;2.63;;
16870;SDS011;8552;48.120;-1.456;2022-08-30T12:08:00;3.47;;;3.08;;
16870;SDS011;8552;48.120;-1.456;2022-08-30T12:10:35;3.28;;;2.55;;
16870;SDS011;8552;48.120;-1.456;2022-08-30T12:13:07;3.88;;;2.90;;
16870;SDS011;8552;48.120;-1.456;2022-08-30T12:15:51;5.15;;;2.58;;
16870;SDS011;8552;48.120;-1.456;2022-08-30T12:18:27;4.85;;;2.97;;
16870;SDS011;8552;48.120;-1.456;2022-08-30T12:21:00;4.22;;;3.50;;
16870;SDS011;8552;48.120;-1.456;2022-08-30T12:23:39;3.53;;;2.67;;
16870;SDS011;8552;48.120;-1.456;2022-08-30T12:26:17;2.58;;;2.33;;
16870;SDS011;8552;48.120;-1.456;2022-08-30T12:31:47;4.20;;;2.80;;
16870;SDS011;8552;48.120;-1.456;2022-08-30T12:34:27;5.93;;;2.95;;
16870;SDS011;8552;48.120;-1.456;2022-08-30T12:39:26;4.72;;;2.88;;
16870;SDS011;8552;48.120;-1.456;2022-08-30T12:41:54;3.08;;;2.50;;
16870;SDS011;8552;48.120;-1.456;2022-08-30T12:44:23;2.70;;;2.50;;
16870;SDS011;8552;48.120;-1.456;2022-08-30T12:46:53;3.58;;;3.15;;
16870;SDS011;8552;48.120;-1.456;2022-08-30T12:49:25;5.30;;;3.05;;
16870;SDS011;8552;48.120;-1.456;2022-08-30T12:51:52;3.88;;;2.92;;
16870;SDS011;8552;48.120;-1.456;2022-08-30T12:54:23;4.15;;;2.90;;
16870;SDS011;8552;48.120;-1.456;2022-08-30T12:57:00;5.10;;;3.22;;
16870;SDS011;8552;48.120;-1.456;2022-08-30T12:59:42;3.67;;;3.03;;
16870;SDS011;8552;48.120;-1.456;2022-08-30T13:02:17;3.15;;;2.85;;
16870;SDS011;8552;48.120;-1.456;2022-08-30T13:04:46;3.78;;;3.17;;
16870;SDS011;8552;48.120;-1.456;2022-08-30T13:10:12;3.03;;;2.72;;
16870;SDS011;8552;48.120;-1.456;2022-08-30T13:12:56;4.55;;;3.22;;
16870;SDS011;8552;48.120;-1.456;2022-08-30T13:15:28;3.47;;;3.15;;
16870;SDS011;8552;48.120;-1.456;2022-08-30T13:18:15;3.97;;;3.20;;
16870;SDS011;8552;48.120;-1.456;2022-08-30T13:20:51;8.80;;;3.03;;
16870;SDS011;8552;48.120;-1.456;2022-08-30T13:23:54;3.35;;;2.95;;
16870;SDS011;8552;48.120;-1.456;2022-08-30T13:26:25;4.18;;;3.10;;
16870;SDS011;8552;48.120;-1.456;2022-08-30T13:28:53;2.78;;;2.58;;
16870;SDS011;8552;48.120;-1.456;2022-08-30T13:31:26;5.05;;;2.80;;
16870;SDS011;8552;48.120;-1.456;2022-08-30T13:33:53;7.55;;;3.22;;
16870;SDS011;8552;48.120;-1.456;2022-08-30T13:36:29;4.65;;;3.28;;
16870;SDS011;8552;48.120;-1.456;2022-08-30T13:38:58;4.72;;;3.20;;
16870;SDS011;8552;48.120;-1.456;2022-08-30T13:41:25;4.10;;;3.08;;
16870;SDS011;8552;48.120;-1.456;2022-08-30T13:43:51;4.57;;;3.25;;
16870;SDS011;8552;48.120;-1.456;2022-08-30T13:46:17;3.40;;;3.15;;
16870;SDS011;8552;48.120;-1.456;2022-08-30T13:48:44;4.07;;;3.58;;
16870;SDS011;8552;48.120;-1.456;2022-08-30T13:51:11;4.00;;;3.55;;
16870;SDS011;8552;48.120;-1.456;2022-08-30T13:53:37;4.82;;;3.60;;
16870;SDS011;8552;48.120;-1.456;2022-08-30T13:56:03;5.13;;;3.47;;
16870;SDS011;8552;48.120;-1.456;2022-08-30T13:58:29;4.50;;;3.30;;
16870;SDS011;8552;48.120;-1.456;2022-08-30T14:00:56;3.63;;;3.33;;
16870;SDS011;8552;48.120;-1.456;2022-08-30T14:03:23;5.25;;;3.17;;
16870;SDS011;8552;48.120;-1.456;2022-08-30T14:05:49;5.82;;;3.53;;
16870;SDS011;8552;48.120;-1.456;2022-08-30T14:08:17;4.18;;;3.80;;
16870;SDS011;8552;48.120;-1.456;2022-08-30T14:10:44;4.38;;;3.60;;
16870;SDS011;8552;48.120;-1.456;2022-08-30T14:13:10;3.95;;;3.65;;
16870;SDS011;8552;48.120;-1.456;2022-08-30T14:15:36;4.70;;;3.90;;
16870;SDS011;8552;48.120;-1.456;2022-08-30T14:18:03;6.60;;;3.47;;
16870;SDS011;8552;48.120;-1.456;2022-08-30T14:20:29;4.22;;;3.60;;
16870;SDS011;8552;48.120;-1.456;2022-08-30T14:22:55;5.32;;;3.65;;
16870;SDS011;8552;48.120;-1.456;2022-08-30T14:25:21;5.35;;;4.07;;
16870;SDS011;8552;48.120;-1.456;2022-08-30T14:27:47;4.18;;;3.78;;
16870;SDS011;8552;48.120;-1.456;2022-08-30T14:30:13;6.63;;;3.60;;
16870;SDS011;8552;48.120;-1.456;2022-08-30T14:32:39;3.67;;;3.40;;
16870;SDS011;8552;48.120;-1.456;2022-08-30T14:35:05;3.97;;;3.58;;
16870;SDS011;8552;48.120;-1.456;2022-08-30T14:37:31;4.55;;;3.75;;
16870;SDS011;8552;48.120;-1.456;2022-08-30T14:39:56;3.60;;;3.30;;
16870;SDS011;8552;48.120;-1.456;2022-08-30T14:42:22;6.10;;;3.40;;
16870;SDS011;8552;48.120;-1.456;2022-08-30T14:44:48;3.90;;;3.60;;
16870;SDS011;8552;48.120;-1.456;2022-08-30T14:47:14;8.85;;;4.47;;
16870;SDS011;8552;48.120;-1.456;2022-08-30T14:49:39;4.60;;;4.20;;
16870;SDS011;8552;48.120;-1.456;2022-08-30T14:52:06;4.75;;;3.88;;
16870;SDS011;8552;48.120;-1.456;2022-08-30T14:54:31;3.85;;;3.55;;
16870;SDS011;8552;48.120;-1.456;2022-08-30T14:56:58;4.95;;;4.03;;
16870;SDS011;8552;48.120;-1.456;2022-08-30T14:59:24;6.43;;;3.63;;
16870;SDS011;8552;48.120;-1.456;2022-08-30T15:01:50;4.90;;;3.78;;
16870;SDS011;8552;48.120;-1.456;2022-08-30T15:04:16;5.13;;;3.80;;
16870;SDS011;8552;48.120;-1.456;2022-08-30T15:06:45;4.32;;;3.75;;
16870;SDS011;8552;48.120;-1.456;2022-08-30T15:09:14;4.05;;;3.67;;
16870;SDS011;8552;48.120;-1.456;2022-08-30T15:11:43;4.68;;;4.03;;
16870;SDS011;8552;48.120;-1.456;2022-08-30T15:14:09;3.72;;;3.40;;
16870;SDS011;8552;48.120;-1.456;2022-08-30T15:16:36;6.50;;;4.10;;
16870;SDS011;8552;48.120;-1.456;2022-08-30T15:19:04;4.03;;;3.63;;
16870;SDS011;8552;48.120;-1.456;2022-08-30T15:21:33;4.00;;;3.67;;
16870;SDS011;8552;48.120;-1.456;2022-08-30T15:24:04;4.43;;;4.03;;
16870;SDS011;8552;48.120;-1.456;2022-08-30T15:26:30;4.07;;;3.67;;
16870;SDS011;8552;48.120;-1.456;2022-08-30T15:28:56;4.82;;;4.43;;
16870;SDS011;8552;48.120;-1.456;2022-08-30T15:31:23;6.38;;;3.95;;
16870;SDS011;8552;48.120;-1.456;2022-08-30T15:33:55;4.75;;;4.07;;
16870;SDS011;8552;48.120;-1.456;2022-08-30T15:36:21;3.58;;;3.28;;
16870;SDS011;8552;48.120;-1.456;2022-08-30T15:38:47;4.32;;;3.92;;
16870;SDS011;8552;48.120;-1.456;2022-08-30T15:41:13;7.60;;;3.65;;
16870;SDS011;8552;48.120;-1.456;2022-08-30T15:43:40;4.18;;;3.47;;
16870;SDS011;8552;48.120;-1.456;2022-08-30T15:46:17;3.92;;;3.58;;
16870;SDS011;8552;48.120;-1.456;2022-08-30T15:48:48;4.65;;;3.75;;
16870;SDS011;8552;48.120;-1.456;2022-08-30T15:51:16;6.93;;;4.43;;
16870;SDS011;8552;48.120;-1.456;2022-08-30T15:53:42;5.70;;;3.78;;
16870;SDS011;8552;48.120;-1.456;2022-08-30T15:56:09;4.75;;;3.60;;
16870;SDS011;8552;48.120;-1.456;2022-08-30T15:58:36;6.60;;;3.80;;
16870;SDS011;8552;48.120;-1.456;2022-08-30T16:01:02;5.20;;;4.30;;
16870;SDS011;8552;48.120;-1.456;2022-08-30T16:03:30;6.05;;;3.83;;
16870;SDS011;8552;48.120;-1.456;2022-08-30T16:05:59;4.57;;;3.83;;
16870;SDS011;8552;48.120;-1.456;2022-08-30T16:08:25;4.13;;;3.53;;
16870;SDS011;8552;48.120;-1.456;2022-08-30T16:10:52;3.95;;;3.42;;
16870;SDS011;8552;48.120;-1.456;2022-08-30T16:13:18;5.30;;;3.55;;
16870;SDS011;8552;48.120;-1.456;2022-08-30T16:15:43;5.43;;;3.38;;
16870;SDS011;8552;48.120;-1.456;2022-08-30T16:18:10;3.88;;;3.40;;
16870;SDS011;8552;48.120;-1.456;2022-08-30T16:20:38;3.72;;;3.33;;
16870;SDS011;8552;48.120;-1.456;2022-08-30T16:23:08;4.68;;;3.90;;
16870;SDS011;8552;48.120;-1.456;2022-08-30T16:25:35;4.03;;;3.67;;
16870;SDS011;8552;48.120;-1.456;2022-08-30T16:28:01;3.65;;;3.35;;